sensor_id;sensor_type;location;lat;lon;timestamp;P1;durP1;ratioP1;P2;durP2;ratioP2
74259;SDS011;62630;55.874;37.516;2023-02-18T00:01:41;18.92;;;9.55;;
74259;SDS011;62630;55.874;37.516;2023-02-18T00:06:54;20.63;;;9.52;;
74259;SDS011;62630;55.874;37.516;2023-02-18T00:09:20;18.10;;;9.27;;
74259;SDS011;62630;55.874;37.516;2023-02-18T00:11:45;20.45;;;9.45;;
74259;SDS011;62630;55.874;37.516;2023-02-18T00:14:12;21.05;;;9.30;;
74259;SDS011;62630;55.874;37.516;2023-02-18T00:16:39;19.23;;;8.38;;
74259;SDS011;62630;55.874;37.516;2023-02-18T00:19:05;16.52;;;8.20;;
74259;SDS011;62630;55.874;37.516;2023-02-18T00:21:35;16.83;;;8.05;;
74259;SDS011;62630;55.874;37.516;2023-02-18T00:24:01;15.57;;;8.60;;
74259;SDS011;62630;55.874;37.516;2023-02-18T00:26:28;19.58;;;8.25;;
74259;SDS011;62630;55.874;37.516;2023-02-18T00:28:53;18.25;;;8.98;;
74259;SDS011;62630;55.874;37.516;2023-02-18T00:31:38;17.10;;;8.35;;
74259;SDS011;62630;55.874;37.516;2023-02-18T00:34:05;18.80;;;9.15;;
74259;SDS011;62630;55.874;37.516;2023-02-18T00:36:31;15.40;;;7.72;;
74259;SDS011;62630;55.874;37.516;2023-02-18T00:38:58;21.45;;;8.13;;
74259;SDS011;62630;55.874;37.516;2023-02-18T00:41:47;20.30;;;8.60;;
74259;SDS011;62630;55.874;37.516;2023-02-18T00:44:14;19.77;;;8.43;;
74259;SDS011;62630;55.874;37.516;2023-02-18T00:46:40;14.82;;;8.77;;
74259;SDS011;62630;55.874;37.516;2023-02-18T00:49:06;16.05;;;8.77;;
74259;SDS011;62630;55.874;37.516;2023-02-18T00:51:32;16.00;;;8.07;;
74259;SDS011;62630;55.874;37.516;2023-02-18T00:53:58;17.63;;;9.25;;
74259;SDS011;62630;55.874;37.516;2023-02-18T00:56:23;17.80;;;8.32;;
74259;SDS011;62630;55.874;37.516;2023-02-18T00:58:49;16.85;;;8.15;;
74259;SDS011;62630;55.874;37.516;2023-02-18T01:01:16;17.00;;;8.95;;
74259;SDS011;62630;55.874;37.516;2023-02-18T01:06:45;16.70;;;7.47;;
74259;SDS011;62630;55.874;37.516;2023-02-18T01:09:10;18.45;;;8.38;;
74259;SDS011;62630;55.874;37.516;2023-02-18T01:11:36;16.63;;;8.45;;
74259;SDS011;62630;55.874;37.516;2023-02-18T01:17:04;15.63;;;7.30;;
74259;SDS011;62630;55.874;37.516;2023-02-18T01:19:36;19.73;;;8.05;;
74259;SDS011;62630;55.874;37.516;2023-02-18T01:22:29;16.75;;;8.30;;
74259;SDS011;62630;55.874;37.516;2023-02-18T01:24:59;14.00;;;7.28;;
74259;SDS011;62630;55.874;37.516;2023-02-18T01:27:24;14.38;;;7.70;;
74259;SDS011;62630;55.874;37.516;2023-02-18T01:29:51;18.92;;;7.72;;
74259;SDS011;62630;55.874;37.516;2023-02-18T01:32:17;14.02;;;7.40;;
74259;SDS011;62630;55.874;37.516;2023-02-18T01:34:42;19.75;;;8.77;;
74259;SDS011;62630;55.874;37.516;2023-02-18T01:37:08;19.05;;;8.80;;
74259;SDS011;62630;55.874;37.516;2023-02-18T01:39:33;17.45;;;7.85;;
74259;SDS011;62630;55.874;37.516;2023-02-18T01:41:59;16.65;;;7.65;;
74259;SDS011;62630;55.874;37.516;2023-02-18T01:44:25;15.77;;;8.50;;
74259;SDS011;62630;55.874;37.516;2023-02-18T01:46:52;15.45;;;7.88;;
74259;SDS011;62630;55.874;37.516;2023-02-18T01:49:20;15.90;;;7.93;;
74259;SDS011;62630;55.874;37.516;2023-02-18T01:52:10;19.60;;;7.15;;
74259;SDS011;62630;55.874;37.516;2023-02-18T01:54:39;16.83;;;7.10;;
74259;SDS011;62630;55.874;37.516;2023-02-18T01:57:09;15.75;;;7.85;;
74259;SDS011;62630;55.874;37.516;2023-02-18T01:59:39;17.92;;;7.75;;
74259;SDS011;62630;55.874;37.516;2023-02-18T02:02:10;16.25;;;6.93;;
74259;SDS011;62630;55.874;37.516;2023-02-18T02:04:38;16.95;;;7.90;;
74259;SDS011;62630;55.874;37.516;2023-02-18T02:07:04;12.63;;;6.70;;
74259;SDS011;62630;55.874;37.516;2023-02-18T02:09:30;18.00;;;8.50;;
74259;SDS011;62630;55.874;37.516;2023-02-18T02:50:55;14.05;;;6.25;;
74259;SDS011;62630;55.874;37.516;2023-02-18T02:53:33;13.15;;;7.55;;
74259;SDS011;62630;55.874;37.516;2023-02-18T02:56:00;14.63;;;7.35;;
74259;SDS011;62630;55.874;37.516;2023-02-18T03:10:14;13.52;;;6.60;;
74259;SDS011;62630;55.874;37.516;2023-02-18T03:21:05;15.18;;;7.95;;
74259;SDS011;62630;55.874;37.516;2023-02-18T03:23:43;14.00;;;6.35;;
74259;SDS011;62630;55.874;37.516;2023-02-18T03:26:15;12.48;;;7.10;;
74259;SDS011;62630;55.874;37.516;2023-02-18T03:29:01;18.00;;;8.00;;
74259;SDS011;62630;55.874;37.516;2023-02-18T03:31:29;15.35;;;7.18;;
74259;SDS011;62630;55.874;37.516;2023-02-18T03:34:00;15.48;;;6.97;;
74259;SDS011;62630;55.874;37.516;2023-02-18T03:36:30;13.38;;;6.82;;
74259;SDS011;62630;55.874;37.516;2023-02-18T03:39:02;11.18;;;5.80;;
74259;SDS011;62630;55.874;37.516;2023-02-18T03:41:31;15.52;;;7.07;;
74259;SDS011;62630;55.874;37.516;2023-02-18T03:43:58;14.88;;;7.93;;
74259;SDS011;62630;55.874;37.516;2023-02-18T03:49:28;15.55;;;7.97;;
74259;SDS011;62630;55.874;37.516;2023-02-18T03:51:54;16.45;;;7.97;;
74259;SDS011;62630;55.874;37.516;2023-02-18T03:57:22;17.70;;;8.23;;
74259;SDS011;62630;55.874;37.516;2023-02-18T03:59:48;18.35;;;9.75;;
74259;SDS011;62630;55.874;37.516;2023-02-18T04:02:13;23.05;;;9.93;;
74259;SDS011;62630;55.874;37.516;2023-02-18T04:04:39;24.88;;;10.52;;
74259;SDS011;62630;55.874;37.516;2023-02-18T04:07:04;28.50;;;10.52;;
74259;SDS011;62630;55.874;37.516;2023-02-18T04:09:30;27.90;;;13.70;;
74259;SDS011;62630;55.874;37.516;2023-02-18T04:11:56;31.45;;;14.23;;
74259;SDS011;62630;55.874;37.516;2023-02-18T04:14:21;34.72;;;14.77;;
74259;SDS011;62630;55.874;37.516;2023-02-18T04:16:47;33.78;;;14.13;;
74259;SDS011;62630;55.874;37.516;2023-02-18T04:19:12;32.78;;;13.50;;
74259;SDS011;62630;55.874;37.516;2023-02-18T04:21:38;31.02;;;14.13;;
74259;SDS011;62630;55.874;37.516;2023-02-18T04:27:06;28.67;;;11.60;;
74259;SDS011;62630;55.874;37.516;2023-02-18T04:29:32;38.03;;;16.02;;
74259;SDS011;62630;55.874;37.516;2023-02-18T04:31:57;30.73;;;13.57;;
74259;SDS011;62630;55.874;37.516;2023-02-18T04:34:23;36.95;;;15.73;;
74259;SDS011;62630;55.874;37.516;2023-02-18T04:36:48;35.90;;;15.00;;
74259;SDS011;62630;55.874;37.516;2023-02-18T04:39:14;21.15;;;8.23;;
74259;SDS011;62630;55.874;37.516;2023-02-18T04:41:39;22.75;;;11.02;;
74259;SDS011;62630;55.874;37.516;2023-02-18T04:44:05;38.95;;;14.23;;
74259;SDS011;62630;55.874;37.516;2023-02-18T04:46:31;33.97;;;13.38;;
74259;SDS011;62630;55.874;37.516;2023-02-18T04:49:00;35.13;;;14.55;;
74259;SDS011;62630;55.874;37.516;2023-02-18T04:54:28;32.40;;;14.07;;
74259;SDS011;62630;55.874;37.516;2023-02-18T04:56:54;31.90;;;12.70;;
74259;SDS011;62630;55.874;37.516;2023-02-18T04:59:19;25.15;;;12.40;;
74259;SDS011;62630;55.874;37.516;2023-02-18T05:02:03;32.97;;;13.60;;
74259;SDS011;62630;55.874;37.516;2023-02-18T05:04:29;35.38;;;12.45;;
74259;SDS011;62630;55.874;37.516;2023-02-18T05:06:55;31.17;;;12.77;;
74259;SDS011;62630;55.874;37.516;2023-02-18T05:09:21;31.67;;;14.32;;
74259;SDS011;62630;55.874;37.516;2023-02-18T05:11:47;26.00;;;12.27;;
74259;SDS011;62630;55.874;37.516;2023-02-18T05:14:13;26.45;;;12.63;;
74259;SDS011;62630;55.874;37.516;2023-02-18T05:16:39;27.92;;;13.80;;
74259;SDS011;62630;55.874;37.516;2023-02-18T05:19:22;25.58;;;11.57;;
74259;SDS011;62630;55.874;37.516;2023-02-18T05:21:48;24.73;;;11.18;;
74259;SDS011;62630;55.874;37.516;2023-02-18T05:24:15;32.45;;;12.05;;
74259;SDS011;62630;55.874;37.516;2023-02-18T05:26:40;29.40;;;12.85;;
74259;SDS011;62630;55.874;37.516;2023-02-18T05:29:06;23.98;;;10.18;;
74259;SDS011;62630;55.874;37.516;2023-02-18T05:31:49;23.90;;;11.85;;
74259;SDS011;62630;55.874;37.516;2023-02-18T05:34:16;25.15;;;10.60;;
74259;SDS011;62630;55.874;37.516;2023-02-18T05:36:41;28.17;;;12.93;;
74259;SDS011;62630;55.874;37.516;2023-02-18T05:39:07;23.65;;;10.45;;
74259;SDS011;62630;55.874;37.516;2023-02-18T05:41:32;24.08;;;11.23;;
74259;SDS011;62630;55.874;37.516;2023-02-18T05:43:58;23.10;;;11.82;;
74259;SDS011;62630;55.874;37.516;2023-02-18T05:49:28;21.60;;;11.20;;
74259;SDS011;62630;55.874;37.516;2023-02-18T05:51:55;19.70;;;10.63;;
74259;SDS011;62630;55.874;37.516;2023-02-18T05:57:23;23.30;;;10.30;;
74259;SDS011;62630;55.874;37.516;2023-02-18T05:59:49;26.13;;;11.65;;
74259;SDS011;62630;55.874;37.516;2023-02-18T06:02:18;24.48;;;11.50;;
74259;SDS011;62630;55.874;37.516;2023-02-18T06:04:43;22.25;;;8.38;;
74259;SDS011;62630;55.874;37.516;2023-02-18T06:07:09;20.23;;;8.68;;
74259;SDS011;62630;55.874;37.516;2023-02-18T06:09:34;21.48;;;9.38;;
74259;SDS011;62630;55.874;37.516;2023-02-18T06:12:00;19.70;;;11.32;;
74259;SDS011;62630;55.874;37.516;2023-02-18T06:14:25;21.30;;;8.77;;
74259;SDS011;62630;55.874;37.516;2023-02-18T06:19:37;27.50;;;13.20;;
74259;SDS011;62630;55.874;37.516;2023-02-18T06:22:03;25.73;;;10.95;;
74259;SDS011;62630;55.874;37.516;2023-02-18T06:24:29;23.95;;;10.57;;
74259;SDS011;62630;55.874;37.516;2023-02-18T06:27:13;19.63;;;9.52;;
74259;SDS011;62630;55.874;37.516;2023-02-18T06:29:39;24.23;;;11.68;;
74259;SDS011;62630;55.874;37.516;2023-02-18T06:32:04;22.20;;;11.90;;
74259;SDS011;62630;55.874;37.516;2023-02-18T06:34:30;23.08;;;10.93;;
74259;SDS011;62630;55.874;37.516;2023-02-18T06:36:56;21.85;;;11.40;;
74259;SDS011;62630;55.874;37.516;2023-02-18T06:39:21;20.67;;;10.02;;
74259;SDS011;62630;55.874;37.516;2023-02-18T06:41:47;20.13;;;9.23;;
74259;SDS011;62630;55.874;37.516;2023-02-18T06:44:12;21.88;;;9.82;;
74259;SDS011;62630;55.874;37.516;2023-02-18T06:46:40;19.83;;;10.25;;
74259;SDS011;62630;55.874;37.516;2023-02-18T06:49:06;16.10;;;7.70;;
74259;SDS011;62630;55.874;37.516;2023-02-18T06:51:32;17.10;;;8.77;;
74259;SDS011;62630;55.874;37.516;2023-02-18T06:53:57;14.48;;;6.40;;
74259;SDS011;62630;55.874;37.516;2023-02-18T06:59:07;13.55;;;7.15;;
74259;SDS011;62630;55.874;37.516;2023-02-18T07:01:33;11.80;;;6.50;;
74259;SDS011;62630;55.874;37.516;2023-02-18T07:03:58;14.23;;;7.25;;
74259;SDS011;62630;55.874;37.516;2023-02-18T07:06:24;7.95;;;4.70;;
74259;SDS011;62630;55.874;37.516;2023-02-18T07:08:49;13.10;;;6.22;;
74259;SDS011;62630;55.874;37.516;2023-02-18T07:11:15;10.15;;;5.13;;
74259;SDS011;62630;55.874;37.516;2023-02-18T07:13:40;9.90;;;5.47;;
74259;SDS011;62630;55.874;37.516;2023-02-18T07:18:51;13.43;;;6.22;;
74259;SDS011;62630;55.874;37.516;2023-02-18T07:21:16;7.88;;;4.82;;
74259;SDS011;62630;55.874;37.516;2023-02-18T07:24:00;15.10;;;5.55;;
74259;SDS011;62630;55.874;37.516;2023-02-18T07:29:10;10.77;;;4.63;;
74259;SDS011;62630;55.874;37.516;2023-02-18T07:31:55;11.57;;;6.05;;
74259;SDS011;62630;55.874;37.516;2023-02-18T07:34:21;15.32;;;6.18;;
74259;SDS011;62630;55.874;37.516;2023-02-18T07:36:47;10.98;;;5.72;;
74259;SDS011;62630;55.874;37.516;2023-02-18T07:39:12;11.88;;;6.15;;
74259;SDS011;62630;55.874;37.516;2023-02-18T07:41:38;11.52;;;6.13;;
74259;SDS011;62630;55.874;37.516;2023-02-18T07:44:04;8.02;;;4.78;;
74259;SDS011;62630;55.874;37.516;2023-02-18T07:46:30;12.60;;;7.00;;
74259;SDS011;62630;55.874;37.516;2023-02-18T07:49:14;8.38;;;5.32;;
74259;SDS011;62630;55.874;37.516;2023-02-18T07:51:40;15.80;;;5.65;;
74259;SDS011;62630;55.874;37.516;2023-02-18T07:56:50;12.30;;;5.00;;
74259;SDS011;62630;55.874;37.516;2023-02-18T07:59:34;17.20;;;5.63;;
74259;SDS011;62630;55.874;37.516;2023-02-18T08:02:00;9.18;;;5.30;;
74259;SDS011;62630;55.874;37.516;2023-02-18T08:04:25;10.13;;;5.25;;
74259;SDS011;62630;55.874;37.516;2023-02-18T08:06:51;9.50;;;5.43;;
74259;SDS011;62630;55.874;37.516;2023-02-18T08:09:20;8.10;;;4.15;;
74259;SDS011;62630;55.874;37.516;2023-02-18T08:11:46;9.43;;;4.93;;
74259;SDS011;62630;55.874;37.516;2023-02-18T08:14:11;8.98;;;4.60;;
74259;SDS011;62630;55.874;37.516;2023-02-18T08:16:37;8.82;;;5.00;;
74259;SDS011;62630;55.874;37.516;2023-02-18T08:19:02;8.60;;;4.90;;
74259;SDS011;62630;55.874;37.516;2023-02-18T08:21:46;7.80;;;3.83;;
74259;SDS011;62630;55.874;37.516;2023-02-18T08:26:56;7.63;;;4.00;;
74259;SDS011;62630;55.874;37.516;2023-02-18T08:29:40;8.07;;;4.07;;
74259;SDS011;62630;55.874;37.516;2023-02-18T08:32:06;9.10;;;4.93;;
74259;SDS011;62630;55.874;37.516;2023-02-18T08:34:31;15.45;;;4.53;;
74259;SDS011;62630;55.874;37.516;2023-02-18T08:36:57;5.85;;;3.75;;
74259;SDS011;62630;55.874;37.516;2023-02-18T08:39:22;8.80;;;5.05;;
74259;SDS011;62630;55.874;37.516;2023-02-18T08:41:48;9.30;;;4.85;;
74259;SDS011;62630;55.874;37.516;2023-02-18T08:44:13;9.18;;;4.90;;
74259;SDS011;62630;55.874;37.516;2023-02-18T08:46:39;11.07;;;5.35;;
74259;SDS011;62630;55.874;37.516;2023-02-18T08:49:05;8.63;;;4.70;;
74259;SDS011;62630;55.874;37.516;2023-02-18T08:51:31;10.30;;;4.43;;
74259;SDS011;62630;55.874;37.516;2023-02-18T08:54:15;8.35;;;5.10;;
74259;SDS011;62630;55.874;37.516;2023-02-18T08:56:41;9.10;;;5.45;;
74259;SDS011;62630;55.874;37.516;2023-02-18T09:01:42;10.07;;;4.65;;
74259;SDS011;62630;55.874;37.516;2023-02-18T09:04:07;9.05;;;5.00;;
74259;SDS011;62630;55.874;37.516;2023-02-18T09:06:35;8.25;;;5.03;;
74259;SDS011;62630;55.874;37.516;2023-02-18T09:09:02;8.70;;;5.22;;
74259;SDS011;62630;55.874;37.516;2023-02-18T09:11:28;8.85;;;4.20;;
74259;SDS011;62630;55.874;37.516;2023-02-18T09:13:53;11.65;;;4.75;;
74259;SDS011;62630;55.874;37.516;2023-02-18T09:16:19;8.00;;;4.90;;
74259;SDS011;62630;55.874;37.516;2023-02-18T09:21:28;9.68;;;4.20;;
74259;SDS011;62630;55.874;37.516;2023-02-18T09:24:12;9.07;;;5.20;;
74259;SDS011;62630;55.874;37.516;2023-02-18T09:29:22;6.88;;;4.78;;
74259;SDS011;62630;55.874;37.516;2023-02-18T09:32:06;13.55;;;4.40;;
74259;SDS011;62630;55.874;37.516;2023-02-18T09:34:33;10.10;;;4.68;;
74259;SDS011;62630;55.874;37.516;2023-02-18T09:36:59;9.43;;;3.97;;
74259;SDS011;62630;55.874;37.516;2023-02-18T09:39:25;5.95;;;4.07;;
74259;SDS011;62630;55.874;37.516;2023-02-18T09:41:54;7.38;;;4.35;;
74259;SDS011;62630;55.874;37.516;2023-02-18T09:44:27;6.20;;;4.00;;
74259;SDS011;62630;55.874;37.516;2023-02-18T09:52:48;11.18;;;4.63;;
74259;SDS011;62630;55.874;37.516;2023-02-18T09:55:16;9.82;;;5.00;;
74259;SDS011;62630;55.874;37.516;2023-02-18T10:00:37;7.68;;;4.72;;
74259;SDS011;62630;55.874;37.516;2023-02-18T10:03:23;8.13;;;4.18;;
74259;SDS011;62630;55.874;37.516;2023-02-18T10:05:54;8.27;;;4.78;;
74259;SDS011;62630;55.874;37.516;2023-02-18T10:10:59;7.78;;;4.40;;
74259;SDS011;62630;55.874;37.516;2023-02-18T10:13:28;11.32;;;4.43;;
74259;SDS011;62630;55.874;37.516;2023-02-18T10:15:55;7.45;;;4.70;;
74259;SDS011;62630;55.874;37.516;2023-02-18T10:20:46;6.93;;;4.32;;
74259;SDS011;62630;55.874;37.516;2023-02-18T10:23:13;8.18;;;4.00;;
74259;SDS011;62630;55.874;37.516;2023-02-18T10:28:27;7.80;;;4.13;;
74259;SDS011;62630;55.874;37.516;2023-02-18T10:30:58;8.73;;;4.60;;
74259;SDS011;62630;55.874;37.516;2023-02-18T10:39:01;9.43;;;4.35;;
74259;SDS011;62630;55.874;37.516;2023-02-18T10:50:03;7.55;;;4.07;;
74259;SDS011;62630;55.874;37.516;2023-02-18T10:55:20;6.18;;;3.95;;
74259;SDS011;62630;55.874;37.516;2023-02-18T10:57:59;6.60;;;3.88;;
74259;SDS011;62630;55.874;37.516;2023-02-18T11:00:25;8.05;;;4.68;;
74259;SDS011;62630;55.874;37.516;2023-02-18T11:06:19;8.55;;;4.47;;
74259;SDS011;62630;55.874;37.516;2023-02-18T11:08:45;8.75;;;4.93;;
74259;SDS011;62630;55.874;37.516;2023-02-18T11:11:14;7.65;;;5.03;;
74259;SDS011;62630;55.874;37.516;2023-02-18T11:13:56;9.82;;;5.72;;
74259;SDS011;62630;55.874;37.516;2023-02-18T11:16:35;10.85;;;4.70;;
74259;SDS011;62630;55.874;37.516;2023-02-18T11:19:01;11.25;;;5.32;;
74259;SDS011;62630;55.874;37.516;2023-02-18T11:21:45;10.57;;;5.53;;
74259;SDS011;62630;55.874;37.516;2023-02-18T11:24:29;9.77;;;5.30;;
74259;SDS011;62630;55.874;37.516;2023-02-18T11:26:55;7.57;;;4.32;;
74259;SDS011;62630;55.874;37.516;2023-02-18T11:29:38;9.32;;;5.25;;
74259;SDS011;62630;55.874;37.516;2023-02-18T11:32:04;7.10;;;5.13;;
74259;SDS011;62630;55.874;37.516;2023-02-18T11:34:36;11.13;;;4.78;;
74259;SDS011;62630;55.874;37.516;2023-02-18T11:37:08;8.88;;;5.25;;
74259;SDS011;62630;55.874;37.516;2023-02-18T11:39:37;13.60;;;6.90;;
74259;SDS011;62630;55.874;37.516;2023-02-18T11:42:10;9.48;;;5.05;;
74259;SDS011;62630;55.874;37.516;2023-02-18T11:44:40;9.32;;;6.00;;
74259;SDS011;62630;55.874;37.516;2023-02-18T11:49:37;6.55;;;4.55;;
74259;SDS011;62630;55.874;37.516;2023-02-18T11:52:17;13.10;;;5.75;;
74259;SDS011;62630;55.874;37.516;2023-02-18T11:55:06;8.70;;;5.30;;
74259;SDS011;62630;55.874;37.516;2023-02-18T11:57:38;7.70;;;4.20;;
74259;SDS011;62630;55.874;37.516;2023-02-18T12:02:48;7.93;;;4.60;;
74259;SDS011;62630;55.874;37.516;2023-02-18T12:07:45;9.55;;;5.55;;
74259;SDS011;62630;55.874;37.516;2023-02-18T12:13:00;9.63;;;5.22;;
74259;SDS011;62630;55.874;37.516;2023-02-18T12:15:33;10.05;;;4.85;;
74259;SDS011;62630;55.874;37.516;2023-02-18T12:26:20;8.88;;;4.78;;
74259;SDS011;62630;55.874;37.516;2023-02-18T12:28:55;8.02;;;5.70;;
74259;SDS011;62630;55.874;37.516;2023-02-18T12:45:47;5.80;;;4.35;;
74259;SDS011;62630;55.874;37.516;2023-02-18T12:56:42;9.75;;;5.38;;
74259;SDS011;62630;55.874;37.516;2023-02-18T13:13:12;9.05;;;4.78;;
74259;SDS011;62630;55.874;37.516;2023-02-18T13:15:47;9.95;;;4.15;;
74259;SDS011;62630;55.874;37.516;2023-02-18T13:18:23;9.05;;;4.85;;
74259;SDS011;62630;55.874;37.516;2023-02-18T13:21:00;8.93;;;4.85;;
74259;SDS011;62630;55.874;37.516;2023-02-18T13:23:34;7.75;;;4.30;;
74259;SDS011;62630;55.874;37.516;2023-02-18T13:26:07;8.30;;;5.38;;
74259;SDS011;62630;55.874;37.516;2023-02-18T13:29:05;6.30;;;3.85;;
74259;SDS011;62630;55.874;37.516;2023-02-18T13:40:07;6.82;;;4.05;;
74259;SDS011;62630;55.874;37.516;2023-02-18T13:42:43;9.65;;;5.03;;
74259;SDS011;62630;55.874;37.516;2023-02-18T13:47:52;9.25;;;5.40;;
74259;SDS011;62630;55.874;37.516;2023-02-18T13:50:29;8.10;;;4.82;;
74259;SDS011;62630;55.874;37.516;2023-02-18T14:01:13;11.10;;;4.65;;
74259;SDS011;62630;55.874;37.516;2023-02-18T14:08:41;12.63;;;5.10;;
74259;SDS011;62630;55.874;37.516;2023-02-18T14:13:42;11.32;;;5.72;;
74259;SDS011;62630;55.874;37.516;2023-02-18T14:16:18;8.73;;;4.40;;
74259;SDS011;62630;55.874;37.516;2023-02-18T14:26:16;15.32;;;5.28;;
74259;SDS011;62630;55.874;37.516;2023-02-18T14:28:48;9.25;;;4.97;;
74259;SDS011;62630;55.874;37.516;2023-02-18T14:31:22;10.45;;;4.55;;
74259;SDS011;62630;55.874;37.516;2023-02-18T14:45:02;7.20;;;4.90;;
74259;SDS011;62630;55.874;37.516;2023-02-18T14:50:21;9.32;;;4.65;;
74259;SDS011;62630;55.874;37.516;2023-02-18T14:52:57;12.43;;;4.82;;
74259;SDS011;62630;55.874;37.516;2023-02-18T14:55:34;11.18;;;5.28;;
74259;SDS011;62630;55.874;37.516;2023-02-18T14:58:06;8.75;;;4.20;;
74259;SDS011;62630;55.874;37.516;2023-02-18T15:00:41;7.28;;;4.55;;
74259;SDS011;62630;55.874;37.516;2023-02-18T15:03:10;7.03;;;4.43;;
74259;SDS011;62630;55.874;37.516;2023-02-18T15:05:38;8.88;;;4.85;;
74259;SDS011;62630;55.874;37.516;2023-02-18T15:08:05;10.63;;;4.90;;
74259;SDS011;62630;55.874;37.516;2023-02-18T15:13:04;10.80;;;5.45;;
74259;SDS011;62630;55.874;37.516;2023-02-18T15:15:33;6.78;;;3.28;;
74259;SDS011;62630;55.874;37.516;2023-02-18T15:18:02;3.10;;;2.42;;
74259;SDS011;62630;55.874;37.516;2023-02-18T15:20:31;5.55;;;3.17;;
74259;SDS011;62630;55.874;37.516;2023-02-18T15:22:58;6.72;;;3.65;;
74259;SDS011;62630;55.874;37.516;2023-02-18T15:25:24;6.68;;;4.35;;
74259;SDS011;62630;55.874;37.516;2023-02-18T15:27:50;8.38;;;3.90;;
74259;SDS011;62630;55.874;37.516;2023-02-18T15:33:10;7.57;;;4.75;;
74259;SDS011;62630;55.874;37.516;2023-02-18T15:35:40;7.82;;;4.63;;
74259;SDS011;62630;55.874;37.516;2023-02-18T15:38:12;6.45;;;4.30;;
74259;SDS011;62630;55.874;37.516;2023-02-18T15:40:39;12.18;;;5.10;;
74259;SDS011;62630;55.874;37.516;2023-02-18T15:43:05;7.57;;;4.45;;
74259;SDS011;62630;55.874;37.516;2023-02-18T15:48:06;8.48;;;3.95;;
74259;SDS011;62630;55.874;37.516;2023-02-18T15:50:50;10.75;;;4.72;;
74259;SDS011;62630;55.874;37.516;2023-02-18T15:53:18;11.80;;;4.70;;
74259;SDS011;62630;55.874;37.516;2023-02-18T15:55:49;7.05;;;4.40;;
74259;SDS011;62630;55.874;37.516;2023-02-18T15:58:26;6.53;;;4.03;;
74259;SDS011;62630;55.874;37.516;2023-02-18T16:08:36;6.15;;;3.53;;
74259;SDS011;62630;55.874;37.516;2023-02-18T16:11:03;7.75;;;4.30;;
74259;SDS011;62630;55.874;37.516;2023-02-18T16:13:35;9.52;;;4.53;;
74259;SDS011;62630;55.874;37.516;2023-02-18T16:16:17;9.65;;;3.78;;
74259;SDS011;62630;55.874;37.516;2023-02-18T16:18:49;9.20;;;4.47;;
74259;SDS011;62630;55.874;37.516;2023-02-18T16:23:52;7.22;;;4.40;;
74259;SDS011;62630;55.874;37.516;2023-02-18T16:29:00;7.63;;;3.63;;
74259;SDS011;62630;55.874;37.516;2023-02-18T16:31:29;8.82;;;3.85;;
74259;SDS011;62630;55.874;37.516;2023-02-18T16:34:00;9.27;;;4.63;;
74259;SDS011;62630;55.874;37.516;2023-02-18T16:36:26;7.20;;;4.10;;
74259;SDS011;62630;55.874;37.516;2023-02-18T16:38:51;6.28;;;3.75;;
74259;SDS011;62630;55.874;37.516;2023-02-18T16:41:17;9.27;;;4.18;;
74259;SDS011;62630;55.874;37.516;2023-02-18T16:44:08;9.77;;;3.58;;
74259;SDS011;62630;55.874;37.516;2023-02-18T16:46:40;7.30;;;3.85;;
74259;SDS011;62630;55.874;37.516;2023-02-18T16:49:07;6.18;;;3.53;;
74259;SDS011;62630;55.874;37.516;2023-02-18T16:51:37;7.72;;;4.60;;
74259;SDS011;62630;55.874;37.516;2023-02-18T16:54:02;8.10;;;3.20;;
74259;SDS011;62630;55.874;37.516;2023-02-18T16:56:29;8.27;;;4.65;;
74259;SDS011;62630;55.874;37.516;2023-02-18T16:58:57;6.65;;;4.40;;
74259;SDS011;62630;55.874;37.516;2023-02-18T17:01:27;11.45;;;3.83;;
74259;SDS011;62630;55.874;37.516;2023-02-18T17:03:55;9.50;;;4.82;;
74259;SDS011;62630;55.874;37.516;2023-02-18T17:06:24;9.18;;;4.72;;
74259;SDS011;62630;55.874;37.516;2023-02-18T17:08:56;7.18;;;3.58;;
74259;SDS011;62630;55.874;37.516;2023-02-18T17:11:24;8.73;;;4.05;;
74259;SDS011;62630;55.874;37.516;2023-02-18T17:13:53;7.90;;;4.53;;
74259;SDS011;62630;55.874;37.516;2023-02-18T17:16:22;6.13;;;3.80;;
74259;SDS011;62630;55.874;37.516;2023-02-18T17:18:49;8.25;;;4.65;;
74259;SDS011;62630;55.874;37.516;2023-02-18T17:21:15;5.88;;;3.72;;
74259;SDS011;62630;55.874;37.516;2023-02-18T17:23:45;5.85;;;3.38;;
74259;SDS011;62630;55.874;37.516;2023-02-18T17:26:22;9.63;;;4.32;;
74259;SDS011;62630;55.874;37.516;2023-02-18T17:28:51;6.43;;;3.30;;
74259;SDS011;62630;55.874;37.516;2023-02-18T17:31:20;8.02;;;4.40;;
74259;SDS011;62630;55.874;37.516;2023-02-18T17:33:54;8.50;;;4.93;;
74259;SDS011;62630;55.874;37.516;2023-02-18T17:36:23;21.20;;;8.07;;
74259;SDS011;62630;55.874;37.516;2023-02-18T17:38:49;12.05;;;5.55;;
74259;SDS011;62630;55.874;37.516;2023-02-18T17:41:15;17.17;;;6.85;;
74259;SDS011;62630;55.874;37.516;2023-02-18T17:43:41;12.15;;;5.72;;
74259;SDS011;62630;55.874;37.516;2023-02-18T17:46:14;13.52;;;6.50;;
74259;SDS011;62630;55.874;37.516;2023-02-18T17:48:41;9.73;;;4.97;;
74259;SDS011;62630;55.874;37.516;2023-02-18T17:51:21;7.57;;;4.30;;
74259;SDS011;62630;55.874;37.516;2023-02-18T17:56:17;15.75;;;5.40;;
74259;SDS011;62630;55.874;37.516;2023-02-18T17:58:45;11.32;;;5.57;;
74259;SDS011;62630;55.874;37.516;2023-02-18T18:01:11;10.48;;;5.40;;
74259;SDS011;62630;55.874;37.516;2023-02-18T18:03:37;8.57;;;4.30;;
74259;SDS011;62630;55.874;37.516;2023-02-18T18:06:03;7.93;;;4.97;;
74259;SDS011;62630;55.874;37.516;2023-02-18T18:08:30;5.65;;;3.70;;
74259;SDS011;62630;55.874;37.516;2023-02-18T18:10:56;10.38;;;4.82;;
74259;SDS011;62630;55.874;37.516;2023-02-18T18:13:25;7.03;;;4.32;;
74259;SDS011;62630;55.874;37.516;2023-02-18T18:18:26;8.60;;;4.20;;
74259;SDS011;62630;55.874;37.516;2023-02-18T18:20:52;7.75;;;4.22;;
74259;SDS011;62630;55.874;37.516;2023-02-18T18:23:20;5.85;;;3.25;;
74259;SDS011;62630;55.874;37.516;2023-02-18T18:25:48;9.77;;;4.70;;
74259;SDS011;62630;55.874;37.516;2023-02-18T18:28:17;7.35;;;3.80;;
74259;SDS011;62630;55.874;37.516;2023-02-18T18:30:45;8.57;;;4.60;;
74259;SDS011;62630;55.874;37.516;2023-02-18T18:35:37;10.00;;;4.57;;
74259;SDS011;62630;55.874;37.516;2023-02-18T18:38:03;8.40;;;4.43;;
74259;SDS011;62630;55.874;37.516;2023-02-18T18:40:29;7.75;;;4.88;;
74259;SDS011;62630;55.874;37.516;2023-02-18T18:42:57;9.95;;;4.93;;
74259;SDS011;62630;55.874;37.516;2023-02-18T18:45:30;9.15;;;5.15;;
74259;SDS011;62630;55.874;37.516;2023-02-18T18:47:58;10.65;;;4.68;;
74259;SDS011;62630;55.874;37.516;2023-02-18T18:50:24;12.40;;;5.88;;
74259;SDS011;62630;55.874;37.516;2023-02-18T18:52:51;10.57;;;5.28;;
74259;SDS011;62630;55.874;37.516;2023-02-18T18:57:50;9.23;;;4.40;;
74259;SDS011;62630;55.874;37.516;2023-02-18T19:00:17;10.43;;;5.93;;
74259;SDS011;62630;55.874;37.516;2023-02-18T19:02:44;9.07;;;5.25;;
74259;SDS011;62630;55.874;37.516;2023-02-18T19:05:21;10.32;;;4.70;;
74259;SDS011;62630;55.874;37.516;2023-02-18T19:07:49;7.97;;;4.20;;
74259;SDS011;62630;55.874;37.516;2023-02-18T19:10:15;9.48;;;4.45;;
74259;SDS011;62630;55.874;37.516;2023-02-18T19:12:42;11.50;;;4.57;;
74259;SDS011;62630;55.874;37.516;2023-02-18T19:15:11;9.73;;;5.75;;
74259;SDS011;62630;55.874;37.516;2023-02-18T19:20:46;11.32;;;4.95;;
74259;SDS011;62630;55.874;37.516;2023-02-18T19:23:12;9.93;;;5.22;;